Time;durP1;ratioP1;P1;durP2;ratioP2;P2;SDS_P1;SDS_P2;PMS_P1;PMS_P2;Temp;Humidity;BMP_temperature;BMP_pressure;BME280_temperature;BME280_humidity;BME280_pressure;Samples;Min_cycle;Max_cycle;Signal;HPM_P1;HPM_P2
2023/08/06 00:00:08;;;;;;;15.55;11.18;;;14.00;99.90;;;;;;6190364;23;20027;-78
2023/08/06 00:02:34;;;;;;;15.57;11.65;;;14.00;99.90;;;;;;6215397;23;20091;-78
2023/08/06 00:04:59;;;;;;;17.38;11.85;;;14.00;99.90;;;;;;6190352;23;20055;-78
2023/08/06 00:07:25;;;;;;;15.77;12.25;;;14.10;99.90;;;;;;6190361;23;20030;-78
2023/08/06 00:09:50;;;;;;;13.88;10.95;;;14.00;99.90;;;;;;6190559;23;20463;-78
2023/08/06 00:12:20;;;;;;;15.75;11.75;;;14.00;99.90;;;;;;6216685;23;20021;-78
2023/08/06 00:14:53;;;;;;;14.27;10.93;;;14.00;99.90;;;;;;6216698;23;20467;-78
2023/08/06 00:17:19;;;;;;;15.00;12.05;;;14.00;99.90;;;;;;6215578;23;20028;-78
2023/08/06 00:19:44;;;;;;;14.95;10.95;;;14.00;99.90;;;;;;6190404;23;20020;-78
2023/08/06 00:22:10;;;;;;;15.57;11.50;;;14.00;99.90;;;;;;6190248;23;20027;-78
2023/08/06 00:24:36;;;;;;;15.60;11.82;;;14.00;99.90;;;;;;6190227;23;20021;-78
2023/08/06 00:27:02;;;;;;;14.90;10.93;;;14.10;99.90;;;;;;6190277;23;20093;-78
2023/08/06 00:29:28;;;;;;;17.35;11.95;;;14.10;99.90;;;;;;6186506;23;20401;-78
2023/08/06 00:31:54;;;;;;;18.52;12.10;;;14.00;99.90;;;;;;6190209;23;20016;-78
2023/08/06 00:34:19;;;;;;;16.98;12.45;;;14.00;99.90;;;;;;6190145;23;20024;-78
2023/08/06 00:36:45;;;;;;;18.33;11.05;;;14.00;99.90;;;;;;6190073;23;20020;-78
2023/08/06 00:39:11;;;;;;;14.15;10.98;;;14.00;99.90;;;;;;6190164;23;20384;-78
2023/08/06 00:41:36;;;;;;;12.80;10.55;;;14.00;99.90;;;;;;6189688;23;20027;-78
2023/08/06 00:44:02;;;;;;;15.27;10.63;;;14.00;99.90;;;;;;6189935;23;20333;-78
2023/08/06 00:46:28;;;;;;;16.70;11.63;;;14.00;99.90;;;;;;6189981;23;20044;-78
2023/08/06 00:48:55;;;;;;;16.48;11.25;;;14.00;99.90;;;;;;6190016;23;20020;-78
2023/08/06 00:51:22;;;;;;;16.85;11.52;;;13.90;99.90;;;;;;6189959;23;20478;-78
2023/08/06 00:53:49;;;;;;;18.10;12.13;;;13.90;99.90;;;;;;6190021;23;20021;-78
2023/08/06 00:56:15;;;;;;;14.02;10.32;;;13.90;99.90;;;;;;6190527;23;20017;-78
2023/08/06 00:58:41;;;;;;;18.95;11.55;;;14.00;99.90;;;;;;6216520;23;20024;-78
2023/08/06 01:01:09;;;;;;;15.60;11.45;;;13.90;99.90;;;;;;6189844;23;20020;-78
2023/08/06 01:03:35;;;;;;;17.17;11.30;;;14.00;99.90;;;;;;6189862;23;20354;-78
2023/08/06 01:06:01;;;;;;;17.75;10.48;;;14.00;99.90;;;;;;6216355;23;20017;-78
2023/08/06 01:08:45;;;;;;;18.70;11.15;;;14.00;99.90;;;;;;6216846;23;20023;-78
2023/08/06 01:11:18;;;;;;;14.32;11.20;;;14.00;99.90;;;;;;6190360;23;20083;-78
2023/08/06 01:13:47;;;;;;;13.98;10.38;;;14.00;99.90;;;;;;6189565;23;20063;-78
2023/08/06 01:16:18;;;;;;;16.40;10.77;;;14.00;99.90;;;;;;6216236;23;20483;-78
2023/08/06 01:18:46;;;;;;;12.02;9.18;;;14.00;99.90;;;;;;6189855;23;20087;-78
2023/08/06 01:21:15;;;;;;;16.10;9.63;;;13.90;99.90;;;;;;6189538;23;20028;-78
2023/08/06 01:23:43;;;;;;;12.00;9.50;;;14.00;99.90;;;;;;6189683;23;20055;-78
2023/08/06 01:26:17;;;;;;;13.25;10.00;;;14.00;99.90;;;;;;6189638;23;20017;-78
2023/08/06 01:28:52;;;;;;;16.02;9.82;;;14.00;99.90;;;;;;6189657;23;20016;-78
2023/08/06 01:31:36;;;;;;;13.80;9.55;;;14.00;99.90;;;;;;6189775;23;20016;-78
2023/08/06 01:34:05;;;;;;;14.23;9.40;;;14.00;99.90;;;;;;6189263;23;20024;-78
2023/08/06 01:36:32;;;;;;;16.17;10.13;;;14.00;99.90;;;;;;6189561;23;20016;-78
2023/08/06 01:38:58;;;;;;;11.85;9.55;;;14.00;99.90;;;;;;6189986;23;20091;-78
2023/08/06 01:41:23;;;;;;;11.93;8.70;;;14.00;99.90;;;;;;6189193;23;20388;-78
2023/08/06 01:43:49;;;;;;;17.20;10.02;;;13.90;99.90;;;;;;6189513;23;20043;-78
2023/08/06 01:46:14;;;;;;;11.18;9.10;;;14.00;99.90;;;;;;6189281;23;20021;-78
2023/08/06 01:48:40;;;;;;;12.07;9.00;;;13.90;99.90;;;;;;6189499;23;20087;-78
2023/08/06 01:51:06;;;;;;;13.13;9.07;;;14.00;99.90;;;;;;6189760;23;20440;-78
2023/08/06 01:53:32;;;;;;;11.52;8.70;;;13.90;99.90;;;;;;6189383;23;20016;-78
2023/08/06 01:55:58;;;;;;;15.60;8.70;;;14.00;99.90;;;;;;6189409;23;20444;-78
2023/08/06 01:58:24;;;;;;;12.65;8.70;;;14.00;99.90;;;;;;6189422;23;20021;-78
2023/08/06 02:00:49;;;;;;;13.10;9.18;;;14.00;99.90;;;;;;6189192;23;20025;-78
2023/08/06 02:03:15;;;;;;;11.50;9.18;;;13.90;99.90;;;;;;6189484;23;20017;-78
2023/08/06 02:05:41;;;;;;;13.93;9.55;;;13.90;99.90;;;;;;6189454;23;20519;-78
2023/08/06 02:08:07;;;;;;;14.65;9.50;;;13.90;99.90;;;;;;6189323;23;20092;-78
2023/08/06 02:10:33;;;;;;;14.88;9.77;;;13.90;99.90;;;;;;6189200;23;20020;-78
2023/08/06 02:13:01;;;;;;;10.60;8.85;;;13.90;99.90;;;;;;6188794;23;20074;-78
2023/08/06 02:15:27;;;;;;;12.13;8.70;;;13.80;99.90;;;;;;6189412;23;20463;-78
2023/08/06 02:17:53;;;;;;;12.73;9.77;;;13.90;99.90;;;;;;6189216;23;20507;-78
2023/08/06 02:20:18;;;;;;;13.40;8.90;;;13.90;99.90;;;;;;6189900;23;20025;-78
2023/08/06 02:22:44;;;;;;;11.50;9.10;;;13.80;99.90;;;;;;6189374;23;20019;-78
2023/08/06 02:25:09;;;;;;;13.75;9.40;;;13.80;99.90;;;;;;6189046;23;20027;-78
2023/08/06 02:27:36;;;;;;;10.80;8.80;;;13.90;99.90;;;;;;6189253;23;20047;-78
2023/08/06 02:30:04;;;;;;;13.65;9.10;;;13.80;99.90;;;;;;6189286;23;20019;-78
2023/08/06 02:32:31;;;;;;;13.88;9.07;;;13.70;99.90;;;;;;6189323;23;20463;-78
2023/08/06 02:34:57;;;;;;;13.35;9.70;;;13.90;99.90;;;;;;6189356;23;20016;-78
2023/08/06 02:37:22;;;;;;;16.45;9.38;;;13.80;99.90;;;;;;6215787;23;20027;-78
2023/08/06 02:39:48;;;;;;;12.10;9.02;;;13.90;99.90;;;;;;6215883;23;20459;-78
2023/08/06 02:42:14;;;;;;;12.18;9.07;;;13.80;99.90;;;;;;6215801;23;20021;-78
2023/08/06 02:44:39;;;;;;;12.00;9.02;;;13.80;99.90;;;;;;6189340;23;20020;-78
2023/08/06 02:47:05;;;;;;;12.93;9.80;;;13.80;99.90;;;;;;6189243;23;20012;-78
2023/08/06 02:49:31;;;;;;;13.88;9.48;;;13.90;99.90;;;;;;6189176;23;20021;-78
2023/08/06 02:51:56;;;;;;;14.57;9.93;;;13.90;99.90;;;;;;6188872;23;20483;-78
2023/08/06 02:54:22;;;;;;;14.25;9.88;;;13.90;99.90;;;;;;6189156;23;20017;-78
2023/08/06 02:56:48;;;;;;;13.82;9.68;;;13.90;99.90;;;;;;6189201;23;20035;-79
2023/08/06 02:59:13;;;;;;;10.40;8.32;;;13.90;99.90;;;;;;6189223;23;20012;-78
2023/08/06 03:01:39;;;;;;;13.38;10.30;;;13.90;99.90;;;;;;6215715;23;20075;-78
2023/08/06 03:04:05;;;;;;;12.25;9.50;;;13.90;99.90;;;;;;6189157;23;20125;-79
2023/08/06 03:06:31;;;;;;;15.50;10.10;;;13.90;99.90;;;;;;6190498;23;20433;-78
2023/08/06 03:08:57;;;;;;;13.23;9.48;;;13.90;99.90;;;;;;6218212;23;20495;-79
2023/08/06 03:11:22;;;;;;;18.77;10.55;;;13.90;99.90;;;;;;6190878;23;20017;-79
2023/08/06 03:13:48;;;;;;;12.77;9.48;;;13.90;99.90;;;;;;6190620;23;20373;-78
2023/08/06 03:16:17;;;;;;;17.45;11.05;;;13.90;99.90;;;;;;6190876;23;20024;-78
2023/08/06 03:18:42;;;;;;;12.93;10.38;;;13.80;99.90;;;;;;6190841;23;20016;-78
2023/08/06 03:21:08;;;;;;;13.90;10.55;;;13.80;99.90;;;;;;6190908;23;20017;-78
2023/08/06 03:23:33;;;;;;;14.30;10.52;;;13.80;99.90;;;;;;6190795;23;20388;-78
2023/08/06 03:26:02;;;;;;;16.77;10.20;;;13.80;99.90;;;;;;6190848;23;20071;-78
2023/08/06 03:28:28;;;;;;;13.38;10.05;;;13.80;99.90;;;;;;6217660;23;20017;-78
2023/08/06 03:31:03;;;;;;;14.50;10.73;;;13.80;99.90;;;;;;6190735;23;20051;-78
2023/08/06 03:33:29;;;;;;;13.38;10.48;;;13.80;99.90;;;;;;6190718;23;20055;-78
2023/08/06 03:35:55;;;;;;;17.33;10.82;;;13.90;99.90;;;;;;6190757;23;20453;-78
2023/08/06 03:38:22;;;;;;;14.25;11.23;;;13.90;99.90;;;;;;6190524;23;20024;-78
2023/08/06 03:40:48;;;;;;;15.52;11.07;;;13.80;99.90;;;;;;6190730;23;20091;-78
2023/08/06 03:43:13;;;;;;;13.15;10.25;;;13.80;99.90;;;;;;6190614;23;20048;-78
2023/08/06 03:45:40;;;;;;;14.23;11.45;;;13.80;99.90;;;;;;6217471;23;20078;-78
2023/08/06 03:48:06;;;;;;;14.50;11.45;;;13.90;99.90;;;;;;6190356;23;20016;-78
2023/08/06 03:50:31;;;;;;;15.07;10.93;;;13.90;99.90;;;;;;6190469;23;20017;-78
2023/08/06 03:52:57;;;;;;;15.85;11.40;;;13.90;99.90;;;;;;6190597;23;20013;-78
2023/08/06 03:55:23;;;;;;;14.93;10.43;;;13.80;99.90;;;;;;6190402;23;20066;-78
2023/08/06 03:57:48;;;;;;;17.13;12.10;;;13.90;99.90;;;;;;6217415;23;20404;-78
2023/08/06 04:00:14;;;;;;;12.88;11.05;;;13.90;99.90;;;;;;6190377;23;20016;-78
2023/08/06 04:02:39;;;;;;;15.43;11.25;;;13.80;99.90;;;;;;6190330;23;20016;-78
2023/08/06 04:05:05;;;;;;;14.65;10.93;;;13.90;99.90;;;;;;6190633;23;20024;-78
2023/08/06 04:07:31;;;;;;;13.70;10.77;;;13.80;99.90;;;;;;6190049;23;20463;-78
2023/08/06 04:10:04;;;;;;;16.50;11.15;;;13.90;99.90;;;;;;6190593;23;20032;-78
2023/08/06 04:12:31;;;;;;;13.65;10.60;;;13.90;99.90;;;;;;6216417;23;20024;-78
2023/08/06 04:14:58;;;;;;;14.38;10.15;;;13.80;99.90;;;;;;6188498;23;20044;-77
2023/08/06 04:17:24;;;;;;;12.70;10.55;;;13.90;99.90;;;;;;6216059;23;20016;-78
2023/08/06 04:19:52;;;;;;;14.77;10.80;;;13.90;99.90;;;;;;6215113;23;20028;-78
2023/08/06 04:22:18;;;;;;;13.85;11.02;;;13.80;99.90;;;;;;6190151;23;20017;-78
2023/08/06 04:24:44;;;;;;;14.88;10.77;;;13.80;99.90;;;;;;6217039;23;20051;-78
2023/08/06 04:27:10;;;;;;;13.27;10.30;;;13.90;99.90;;;;;;6189990;23;20052;-78
2023/08/06 04:29:37;;;;;;;15.40;10.68;;;13.90;99.90;;;;;;6216605;23;20524;-78
2023/08/06 04:32:05;;;;;;;14.27;10.43;;;13.90;99.90;;;;;;6190045;23;20319;-78
2023/08/06 04:34:31;;;;;;;13.23;10.73;;;13.90;99.90;;;;;;6190065;23;20460;-78
2023/08/06 04:36:56;;;;;;;14.02;10.43;;;13.90;99.90;;;;;;6190084;23;20020;-78
2023/08/06 04:39:22;;;;;;;15.02;10.95;;;13.90;99.90;;;;;;6189761;23;20016;-78
2023/08/06 04:41:47;;;;;;;17.13;11.35;;;13.90;99.90;;;;;;6190050;23;20017;-78
2023/08/06 04:44:13;;;;;;;17.02;11.23;;;13.90;99.90;;;;;;6216811;23;20499;-78
2023/08/06 04:46:39;;;;;;;13.32;10.52;;;14.00;99.90;;;;;;6189790;23;20026;-78
2023/08/06 04:49:07;;;;;;;13.00;10.63;;;14.00;99.90;;;;;;6189775;23;20024;-78
2023/08/06 04:51:35;;;;;;;15.15;11.10;;;13.90;99.90;;;;;;6189678;23;20016;-78
2023/08/06 04:54:01;;;;;;;14.10;10.18;;;14.00;99.90;;;;;;6216816;23;20071;-78
2023/08/06 04:56:27;;;;;;;14.27;10.00;;;14.10;99.90;;;;;;6216655;23;20084;-78
2023/08/06 04:58:53;;;;;;;12.45;9.98;;;14.00;99.90;;;;;;6189893;23;20087;-78
2023/08/06 05:01:19;;;;;;;15.07;10.75;;;14.10;99.90;;;;;;6189685;23;20158;-78
2023/08/06 05:03:44;;;;;;;17.95;11.20;;;14.10;99.90;;;;;;6189866;23;20017;-78
2023/08/06 05:06:10;;;;;;;15.38;10.85;;;14.20;99.90;;;;;;6189657;23;20020;-78
2023/08/06 05:08:36;;;;;;;16.13;10.90;;;14.10;99.90;;;;;;6189648;23;20049;-78
2023/08/06 05:11:02;;;;;;;16.40;9.77;;;14.20;99.90;;;;;;6216632;23;20107;-78
2023/08/06 05:13:28;;;;;;;14.13;10.55;;;14.20;99.90;;;;;;6215681;23;20017;-78
2023/08/06 05:15:56;;;;;;;13.88;10.07;;;14.20;99.90;;;;;;6216171;23;20029;-78
2023/08/06 05:18:22;;;;;;;15.02;10.30;;;14.20;99.90;;;;;;6189685;23;20032;-78
2023/08/06 05:20:48;;;;;;;14.93;9.93;;;14.20;99.90;;;;;;6216620;23;20036;-78
2023/08/06 05:23:16;;;;;;;11.80;9.95;;;14.30;99.90;;;;;;6189524;23;20024;-78
2023/08/06 05:25:45;;;;;;;13.98;10.48;;;14.30;99.90;;;;;;6189572;23;20067;-78
2023/08/06 05:28:10;;;;;;;14.15;9.73;;;14.30;99.90;;;;;;6189058;23;20027;-78
2023/08/06 05:30:39;;;;;;;15.75;10.15;;;14.30;99.90;;;;;;6189304;23;20095;-78
2023/08/06 05:33:05;;;;;;;13.13;9.52;;;14.40;99.90;;;;;;6216441;23;20008;-78
2023/08/06 05:35:31;;;;;;;13.43;9.68;;;14.30;99.90;;;;;;6189557;23;20440;-78
2023/08/06 05:37:56;;;;;;;14.15;9.57;;;14.40;99.90;;;;;;6216089;23;20388;-78
2023/08/06 05:40:22;;;;;;;11.45;9.23;;;14.40;99.90;;;;;;6189402;23;20499;-78
2023/08/06 05:42:47;;;;;;;11.57;8.13;;;14.40;99.90;;;;;;6189443;23;20020;-78
2023/08/06 05:45:13;;;;;;;10.43;8.35;;;14.40;99.90;;;;;;6189411;23;20040;-78
2023/08/06 05:47:39;;;;;;;10.13;7.72;;;14.40;99.90;;;;;;6189272;23;20021;-78
2023/08/06 05:50:05;;;;;;;12.48;7.97;;;14.50;99.90;;;;;;6216363;23;20333;-78
2023/08/06 05:52:31;;;;;;;12.07;7.53;;;14.50;99.90;;;;;;6215959;23;20131;-78
2023/08/06 05:54:56;;;;;;;10.07;7.68;;;14.50;99.90;;;;;;6214365;23;20048;-78
2023/08/06 05:57:22;;;;;;;11.30;7.75;;;14.60;99.90;;;;;;6189446;23;20020;-78
2023/08/06 05:59:48;;;;;;;12.07;7.88;;;14.70;99.90;;;;;;6189355;23;20448;-78
2023/08/06 06:02:22;;;;;;;10.80;6.57;;;14.70;99.90;;;;;;6215939;23;20311;-79
2023/08/06 06:04:48;;;;;;;9.43;6.78;;;14.70;99.90;;;;;;6189159;23;20017;-78
2023/08/06 06:07:14;;;;;;;7.60;6.57;;;14.80;99.90;;;;;;6189029;23;20020;-79
2023/08/06 06:09:40;;;;;;;9.23;6.93;;;14.80;99.90;;;;;;6189256;23;20020;-77
2023/08/06 06:12:06;;;;;;;10.32;6.57;;;14.80;99.90;;;;;;6215890;23;20020;-79
2023/08/06 06:14:32;;;;;;;7.65;6.30;;;14.80;99.90;;;;;;6215666;23;20027;-79
2023/08/06 06:17:00;;;;;;;8.70;6.38;;;14.90;99.90;;;;;;6188268;23;20409;-76
2023/08/06 06:19:35;;;;;;;7.57;6.47;;;14.90;99.90;;;;;;6188924;23;20027;-76
2023/08/06 06:22:01;;;;;;;8.65;5.93;;;14.90;99.90;;;;;;6189126;23;20043;-75
2023/08/06 06:24:26;;;;;;;8.10;5.90;;;14.90;99.90;;;;;;6215783;23;20341;-76
2023/08/06 06:26:52;;;;;;;8.57;5.60;;;14.90;99.90;;;;;;6188927;23;20471;-76
2023/08/06 06:29:18;;;;;;;8.43;5.72;;;14.80;99.90;;;;;;6187852;23;20016;-76
2023/08/06 06:31:43;;;;;;;7.57;5.95;;;15.00;99.90;;;;;;6188983;23;20020;-77
2023/08/06 06:34:12;;;;;;;9.32;6.00;;;15.00;99.90;;;;;;6189126;23;20008;-78
2023/08/06 06:36:37;;;;;;;7.25;5.93;;;15.00;99.90;;;;;;6188922;23;20424;-77
2023/08/06 06:39:03;;;;;;;10.48;6.53;;;15.10;99.90;;;;;;6215436;23;20469;-77
2023/08/06 06:41:31;;;;;;;9.50;6.05;;;15.10;99.90;;;;;;6217075;23;20046;-80
2023/08/06 06:43:57;;;;;;;10.00;5.82;;;15.20;99.90;;;;;;6189832;23;20023;-78
2023/08/06 06:46:22;;;;;;;10.23;6.50;;;15.30;99.90;;;;;;6217242;23;20016;-76
2023/08/06 06:48:48;;;;;;;8.95;7.05;;;15.30;99.90;;;;;;6217576;23;20042;-81
2023/08/06 06:51:13;;;;;;;11.60;6.75;;;15.40;99.90;;;;;;6190484;23;20013;-77
2023/08/06 06:53:39;;;;;;;8.50;6.65;;;15.40;99.90;;;;;;6190921;23;20012;-77
2023/08/06 06:56:05;;;;;;;9.02;6.57;;;15.50;99.90;;;;;;6190687;23;20028;-77
2023/08/06 06:58:32;;;;;;;11.70;7.20;;;15.60;99.90;;;;;;6190738;23;20017;-77
2023/08/06 07:01:18;;;;;;;9.57;6.60;;;15.60;99.90;;;;;;6217615;23;20020;-77
2023/08/06 07:03:43;;;;;;;8.63;7.18;;;15.60;99.90;;;;;;6190116;23;20028;-77
2023/08/06 07:06:09;;;;;;;12.23;7.22;;;15.80;99.90;;;;;;6190442;23;20016;-77
2023/08/06 07:08:34;;;;;;;9.70;6.97;;;15.80;99.90;;;;;;6190431;23;20055;-77
2023/08/06 07:11:06;;;;;;;9.18;6.72;;;15.90;99.90;;;;;;6190633;23;20376;-77
2023/08/06 07:13:34;;;;;;;8.88;6.15;;;16.00;99.90;;;;;;6185513;23;20021;-77
2023/08/06 07:16:00;;;;;;;7.40;6.20;;;16.10;99.90;;;;;;6160626;23;20021;-78
2023/08/06 07:18:26;;;;;;;9.68;5.50;;;16.20;99.90;;;;;;6185352;23;20100;-75
2023/08/06 07:20:52;;;;;;;7.95;4.68;;;16.40;99.90;;;;;;6185323;23;20099;-75
2023/08/06 07:23:21;;;;;;;6.38;4.70;;;16.50;99.90;;;;;;6160546;23;20517;-75
2023/08/06 07:25:47;;;;;;;7.18;4.32;;;16.70;99.90;;;;;;6160390;23;20026;-76
2023/08/06 07:28:23;;;;;;;5.50;3.55;;;16.70;99.90;;;;;;6160437;23;20099;-75
2023/08/06 07:30:48;;;;;;;6.90;3.40;;;16.90;99.90;;;;;;6160664;23;20009;-76
2023/08/06 07:33:14;;;;;;;5.55;3.67;;;17.10;99.90;;;;;;6160643;23;20398;-75
2023/08/06 07:35:40;;;;;;;4.90;2.47;;;17.30;99.90;;;;;;6185368;23;20032;-77
2023/08/06 07:38:06;;;;;;;4.25;2.65;;;17.40;99.90;;;;;;6186455;23;20009;-75
2023/08/06 07:40:32;;;;;;;3.88;3.00;;;17.60;99.90;;;;;;6186277;23;20013;-76
2023/08/06 07:42:57;;;;;;;6.07;3.05;;;17.70;99.90;;;;;;6160168;23;20079;-76
2023/08/06 07:45:23;;;;;;;7.75;4.00;;;17.90;99.90;;;;;;6185010;23;20009;-76
2023/08/06 07:47:52;;;;;;;6.22;3.40;;;18.10;99.90;;;;;;6159695;23;20017;-76
2023/08/06 07:50:25;;;;;;;6.50;3.78;;;18.30;99.90;;;;;;6184886;23;20021;-76
2023/08/06 07:52:53;;;;;;;6.15;3.95;;;18.40;99.90;;;;;;6184743;23;20084;-77
2023/08/06 07:55:19;;;;;;;5.22;2.80;;;18.40;99.90;;;;;;6160002;23;20024;-77
2023/08/06 07:57:47;;;;;;;4.25;2.40;;;18.40;99.90;;;;;;6160178;23;20020;-76
2023/08/06 08:00:16;;;;;;;3.75;2.10;;;18.50;99.90;;;;;;6184811;23;20020;-76
2023/08/06 08:02:41;;;;;;;3.95;2.22;;;18.60;99.90;;;;;;6159514;23;20021;-76
2023/08/06 08:05:08;;;;;;;4.50;2.53;;;18.80;99.90;;;;;;6160231;23;20028;-76
2023/08/06 08:07:34;;;;;;;4.15;2.65;;;18.80;99.90;;;;;;6184579;23;20063;-76
2023/08/06 08:09:59;;;;;;;5.13;2.58;;;19.00;99.90;;;;;;6159921;23;20017;-76
2023/08/06 08:12:25;;;;;;;3.72;2.22;;;19.20;99.90;;;;;;6184727;23;20021;-77
2023/08/06 08:14:50;;;;;;;4.78;2.30;;;19.20;99.90;;;;;;6189344;23;20016;-77
2023/08/06 08:17:16;;;;;;;4.25;2.10;;;19.20;99.90;;;;;;6189554;23;20055;-77
2023/08/06 08:19:45;;;;;;;2.95;2.17;;;19.50;99.90;;;;;;6189459;23;20024;-77
2023/08/06 08:22:10;;;;;;;3.33;2.30;;;19.50;99.90;;;;;;6189550;23;20088;-76
2023/08/06 08:24:36;;;;;;;4.13;2.50;;;19.40;99.90;;;;;;6189711;23;20044;-76
2023/08/06 08:27:02;;;;;;;5.40;2.40;;;19.50;99.90;;;;;;6189509;23;20031;-76
2023/08/06 08:29:27;;;;;;;4.20;1.85;;;19.30;99.90;;;;;;6216564;23;20013;-76
2023/08/06 08:31:53;;;;;;;4.32;2.53;;;19.10;99.90;;;;;;6216365;23;20013;-76
2023/08/06 08:34:19;;;;;;;4.68;2.30;;;19.40;99.90;;;;;;6189857;23;20021;-75
2023/08/06 08:36:47;;;;;;;4.40;2.42;;;19.40;99.90;;;;;;6189241;23;20044;-75
2023/08/06 08:39:13;;;;;;;4.22;2.00;;;19.50;99.90;;;;;;6189393;23;20021;-76
2023/08/06 08:41:39;;;;;;;6.43;2.35;;;19.60;99.90;;;;;;6188871;23;20016;-76
2023/08/06 08:44:10;;;;;;;4.15;2.30;;;19.70;99.90;;;;;;6188500;23;20025;-77
2023/08/06 08:46:38;;;;;;;3.65;2.08;;;19.50;99.90;;;;;;6189472;23;20048;-77
2023/08/06 08:49:04;;;;;;;4.30;2.08;;;19.40;99.90;;;;;;6188959;23;20349;-77
2023/08/06 08:51:31;;;;;;;3.75;2.40;;;19.50;99.90;;;;;;6189005;23;20441;-76
2023/08/06 08:53:57;;;;;;;3.83;1.85;;;19.50;99.90;;;;;;6189229;23;20016;-77
2023/08/06 08:56:23;;;;;;;3.22;2.08;;;19.50;99.90;;;;;;6188984;23;20023;-76
2023/08/06 08:58:49;;;;;;;3.53;2.10;;;19.30;99.90;;;;;;6189013;23;20067;-76
2023/08/06 09:01:15;;;;;;;5.07;1.83;;;19.40;99.90;;;;;;6216054;23;20016;-75
2023/08/06 09:03:45;;;;;;;6.55;1.88;;;19.50;99.90;;;;;;6188988;23;20024;-77
2023/08/06 09:06:12;;;;;;;5.93;1.85;;;19.60;99.90;;;;;;6188658;23;20020;-76
2023/08/06 09:08:47;;;;;;;3.90;2.05;;;19.50;99.90;;;;;;6189173;23;20024;-76
2023/08/06 09:11:13;;;;;;;3.40;2.33;;;19.50;99.90;;;;;;6188918;23;20016;-75
2023/08/06 09:13:39;;;;;;;3.13;2.03;;;19.50;99.90;;;;;;6189090;23;20021;-76
2023/08/06 09:16:05;;;;;;;4.43;2.22;;;19.50;99.90;;;;;;6188958;23;20448;-76
2023/08/06 09:18:31;;;;;;;3.40;2.00;;;19.50;99.90;;;;;;6189189;23;20023;-75
2023/08/06 09:20:57;;;;;;;3.45;1.90;;;19.70;99.90;;;;;;6188944;23;20441;-76
2023/08/06 09:23:31;;;;;;;5.82;2.40;;;19.70;99.90;;;;;;6188591;23;20385;-75
2023/08/06 09:25:57;;;;;;;5.28;3.17;;;19.50;99.90;;;;;;6188926;23;20008;-74
2023/08/06 09:28:24;;;;;;;3.90;1.90;;;19.50;99.90;;;;;;6215634;23;20373;-75
2023/08/06 09:30:54;;;;;;;5.97;2.10;;;19.50;99.90;;;;;;6216055;23;20013;-75
2023/08/06 09:33:23;;;;;;;3.97;2.13;;;19.50;99.90;;;;;;6189274;23;20100;-75
2023/08/06 09:35:48;;;;;;;4.03;2.40;;;19.50;99.90;;;;;;6189083;23;20043;-75
2023/08/06 09:38:14;;;;;;;5.53;1.90;;;19.40;99.90;;;;;;6216161;23;20329;-75
2023/08/06 09:40:40;;;;;;;4.80;2.58;;;19.50;99.90;;;;;;6188884;23;20020;-75
2023/08/06 09:43:06;;;;;;;4.53;2.55;;;19.60;99.90;;;;;;6189280;23;20016;-75
2023/08/06 09:45:37;;;;;;;4.47;2.63;;;19.70;99.90;;;;;;6188973;23;20067;-76
2023/08/06 09:48:05;;;;;;;8.35;2.80;;;19.80;99.90;;;;;;6189207;23;20092;-75
2023/08/06 09:50:32;;;;;;;7.85;2.42;;;20.10;99.90;;;;;;6216131;23;20059;-79
2023/08/06 09:52:59;;;;;;;4.82;2.20;;;20.10;99.90;;;;;;6215787;23;20044;-77
2023/08/06 09:55:26;;;;;;;4.88;2.58;;;20.20;99.90;;;;;;6215617;23;20052;-75
2023/08/06 09:57:52;;;;;;;5.57;2.47;;;20.40;99.90;;;;;;6189116;23;20458;-78
2023/08/06 10:00:18;;;;;;;4.35;2.30;;;20.40;99.90;;;;;;6215754;23;20020;-77
2023/08/06 10:02:46;;;;;;;3.65;2.22;;;20.50;99.90;;;;;;6189336;23;20009;-77
2023/08/06 10:05:11;;;;;;;4.30;2.28;;;20.40;99.90;;;;;;6189275;23;20059;-77
2023/08/06 10:07:40;;;;;;;3.17;2.25;;;20.50;99.90;;;;;;6189148;23;20024;-77
2023/08/06 10:10:07;;;;;;;6.75;2.50;;;20.60;99.90;;;;;;6189294;23;20013;-76
2023/08/06 10:13:01;;;;;;;4.25;2.45;;;20.60;99.90;;;;;;6189369;23;20020;-77
2023/08/06 10:15:30;;;;;;;4.00;2.30;;;20.70;99.90;;;;;;6186081;23;20047;-77
2023/08/06 10:17:59;;;;;;;4.53;2.17;;;20.80;99.90;;;;;;6191413;23;20024;-76
2023/08/06 10:20:25;;;;;;;4.82;2.22;;;20.80;99.90;;;;;;6191301;23;20028;-77
2023/08/06 10:23:05;;;;;;;3.70;2.10;;;20.80;99.90;;;;;;6191340;23;20020;-76
2023/08/06 10:25:33;;;;;;;4.05;2.13;;;20.90;99.90;;;;;;6191233;23;20437;-76
2023/08/06 10:28:15;;;;;;;4.15;2.25;;;20.90;99.90;;;;;;6191635;23;20430;-76
2023/08/06 10:30:50;;;;;;;3.97;1.90;;;21.00;99.90;;;;;;6191236;23;20461;-76
2023/08/06 10:33:19;;;;;;;4.43;1.90;;;21.10;99.90;;;;;;6191345;23;20095;-76
2023/08/06 10:35:50;;;;;;;3.95;1.90;;;21.10;99.90;;;;;;6191083;23;20017;-76
2023/08/06 10:38:25;;;;;;;3.22;2.08;;;21.20;99.90;;;;;;6218115;23;20016;-77
2023/08/06 10:40:54;;;;;;;3.75;1.83;;;21.30;99.90;;;;;;6217698;23;20326;-76
2023/08/06 10:43:38;;;;;;;2.83;1.75;;;21.20;99.90;;;;;;6191122;23;20021;-76
2023/08/06 10:46:09;;;;;;;4.28;2.08;;;21.40;99.90;;;;;;6191200;23;20017;-76
2023/08/06 10:48:36;;;;;;;3.95;2.10;;;21.50;99.90;;;;;;6191090;23;20071;-76
2023/08/06 10:51:02;;;;;;;3.65;2.17;;;21.50;99.90;;;;;;6215867;23;20017;-76
2023/08/06 10:53:28;;;;;;;7.20;2.25;;;21.50;99.90;;;;;;6190917;23;20059;-76
2023/08/06 10:55:54;;;;;;;3.47;2.00;;;21.70;99.90;;;;;;6191013;23;20017;-77
2023/08/06 10:58:20;;;;;;;5.43;2.10;;;22.00;99.90;;;;;;6217887;23;20012;-76
2023/08/06 11:00:46;;;;;;;4.60;2.20;;;22.10;99.90;;;;;;6191050;23;20048;-77
2023/08/06 11:03:11;;;;;;;4.25;2.10;;;22.00;99.90;;;;;;6190920;23;20020;-76
2023/08/06 11:05:37;;;;;;;4.75;1.90;;;21.70;99.90;;;;;;6190944;23;20062;-76
2023/08/06 11:08:03;;;;;;;3.78;2.00;;;21.70;99.90;;;;;;6217168;23;20027;-77
2023/08/06 11:10:29;;;;;;;3.97;1.95;;;21.90;99.90;;;;;;6190920;23;20021;-77
2023/08/06 11:13:01;;;;;;;4.15;2.25;;;21.80;99.90;;;;;;6217562;23;20332;-77
2023/08/06 11:15:27;;;;;;;5.22;2.50;;;21.90;99.90;;;;;;6190534;23;20441;-77
2023/08/06 11:17:52;;;;;;;6.18;2.45;;;21.90;99.90;;;;;;6190841;23;20027;-77
2023/08/06 11:20:21;;;;;;;3.35;2.30;;;21.90;99.90;;;;;;6190560;23;20012;-77
2023/08/06 11:22:47;;;;;;;4.50;2.00;;;21.90;99.90;;;;;;6190509;23;20071;-77
2023/08/06 11:25:13;;;;;;;4.07;2.30;;;21.90;99.90;;;;;;6190269;23;20013;-77
2023/08/06 11:27:39;;;;;;;3.28;1.95;;;21.90;99.90;;;;;;6190340;23;20020;-77
2023/08/06 11:30:05;;;;;;;5.25;2.30;;;21.90;99.90;;;;;;6190586;23;20023;-77
2023/08/06 11:32:44;;;;;;;5.25;2.22;;;21.90;99.90;;;;;;6190775;23;20036;-76
2023/08/06 11:35:16;;;;;;;3.92;2.10;;;21.70;99.90;;;;;;6190524;23;20019;-77
2023/08/06 11:37:46;;;;;;;3.55;2.00;;;21.70;99.90;;;;;;6190419;23;20024;-76
2023/08/06 11:40:13;;;;;;;3.50;2.30;;;21.50;99.90;;;;;;6190467;23;20020;-77
2023/08/06 11:42:39;;;;;;;5.07;2.33;;;21.60;99.90;;;;;;6190495;23;20024;-77
2023/08/06 11:45:05;;;;;;;4.53;2.38;;;21.70;99.90;;;;;;6217145;23;20420;-77
2023/08/06 11:47:31;;;;;;;3.85;2.00;;;21.70;99.90;;;;;;6190412;23;20046;-77
2023/08/06 11:49:57;;;;;;;3.22;2.47;;;21.70;99.90;;;;;;6190395;23;20433;-77
2023/08/06 11:52:24;;;;;;;3.10;1.90;;;21.80;99.90;;;;;;6190367;23;20012;-77
2023/08/06 11:55:11;;;;;;;4.28;2.00;;;21.90;99.90;;;;;;6190511;23;20021;-77
2023/08/06 11:57:39;;;;;;;3.97;1.98;;;22.00;99.90;;;;;;6190440;23;20008;-77
2023/08/06 12:00:13;;;;;;;3.72;1.95;;;22.10;99.90;;;;;;6190380;23;20483;-76
2023/08/06 12:02:41;;;;;;;3.63;1.95;;;22.20;99.90;;;;;;6190429;23;20013;-77
2023/08/06 12:05:11;;;;;;;5.72;1.80;;;22.10;99.90;;;;;;6190426;23;20023;-77
2023/08/06 12:07:38;;;;;;;3.60;1.77;;;22.30;99.90;;;;;;6190280;23;20024;-77
2023/08/06 12:10:05;;;;;;;3.55;2.10;;;22.20;99.90;;;;;;6190360;23;20048;-77
2023/08/06 12:12:31;;;;;;;4.28;2.03;;;22.30;99.90;;;;;;6190245;23;20066;-77
2023/08/06 12:14:58;;;;;;;3.95;2.08;;;22.40;99.90;;;;;;6190038;23;20103;-77
2023/08/06 12:17:24;;;;;;;3.05;2.10;;;22.50;99.90;;;;;;6216835;23;20024;-77
2023/08/06 12:19:50;;;;;;;5.15;2.15;;;22.60;99.90;;;;;;6190213;23;20044;-77
2023/08/06 12:22:16;;;;;;;5.05;2.17;;;22.60;99.90;;;;;;6190151;23;20079;-78
2023/08/06 12:24:43;;;;;;;3.72;2.05;;;22.70;99.90;;;;;;6190130;23;20040;-78
2023/08/06 12:27:09;;;;;;;3.20;1.98;;;22.70;99.90;;;;;;6190029;23;20016;-78
2023/08/06 12:29:35;;;;;;;3.03;1.80;;;22.60;99.90;;;;;;6190147;23;20437;-77
2023/08/06 12:32:01;;;;;;;3.80;2.20;;;22.70;99.90;;;;;;6216686;23;20032;-78
2023/08/06 12:34:27;;;;;;;2.63;1.90;;;22.60;99.90;;;;;;6190136;23;20013;-78
2023/08/06 12:36:53;;;;;;;4.63;2.03;;;22.60;99.90;;;;;;6188806;23;20043;-79